Time,TemperatureF,DewpointF,PressureIn,WindDirection,WindDirectionDegrees,WindSpeedMPH,WindSpeedGustMPH,Humidity,HourlyPrecipIn,Conditions,Clouds,dailyrainin,SoftwareType,DateUTC
2013-06-20 00:02:00,54.1,48.8,29.68,WSW,248,0.0,0.0,82,0.00,RA,,0.00,WeatherDisplay:10.37,2013-06-20 07:02:00,
2013-06-20 00:07:00,54.1,48.8,29.68,SSE,158,0.0,0.0,82,0.00,RA,,0.00,WeatherDisplay:10.37,2013-06-20 07:07:00,
2013-06-20 00:12:00,54.1,49.1,29.68,SSE,158,0.0,0.0,83,0.00,CLR,,0.00,WeatherDisplay:10.37,2013-06-20 07:12:00,
2013-06-20 00:17:00,54.1,48.8,29.68,NE,45,0.0,0.0,82,0.00,CLR,,0.00,WeatherDisplay:10.37,2013-06-20 07:17:00,
2013-06-20 00:22:00,54.1,48.8,29.68,SE,135,0.0,0.0,82,0.00,CLR,,0.00,WeatherDisplay:10.37,2013-06-20 07:22:00,
2013-06-20 00:28:00,54.1,48.8,29.67,SW,225,0.0,0.0,82,0.00,CLR,,0.00,WeatherDisplay:10.37,2013-06-20 07:28:00,
2013-06-20 00:33:00,54.1,48.8,29.68,SSW,202,0.0,0.0,82,0.00,CLR,,0.00,WeatherDisplay:10.37,2013-06-20 07:33:00,
2013-06-20 00:38:00,54.1,48.8,29.68,South,180,0.0,0.0,82,0.00,CLR,,0.00,WeatherDisplay:10.37,2013-06-20 07:38:00,
2013-06-20 00:43:00,54.1,48.4,29.68,WNW,292,0.0,0.0,81,0.00,CLR,,0.00,WeatherDisplay:10.37,2013-06-20 07:43:00,
2013-06-20 00:48:00,54.1,48.4,29.68,SSW,202,0.0,0.0,81,0.00,CLR,,0.00,WeatherDisplay:10.37,2013-06-20 07:48:00,
2013-06-20 00:54:00,54.0,48.3,29.68,NE,45,0.0,0.0,81,0.00,CLR,,0.00,WeatherDisplay:10.37,2013-06-20 07:54:00,
2013-06-20 00:59:00,54.0,48.3,29.68,SSW,202,0.0,0.0,81,0.00,CLR,,0.00,WeatherDisplay:10.37,2013-06-20 07:59:00,
2013-06-20 01:04:00,54.0,48.3,29.68,SSW,202,0.0,0.0,81,0.00,CLR,,0.00,WeatherDisplay:10.37,2013-06-20 08:04:00,
2013-06-20 01:09:00,54.0,48.3,29.68,South,180,0.0,0.0,81,0.00,CLR,,0.00,WeatherDisplay:10.37,2013-06-20 08:09:00,
2013-06-20 01:15:00,53.8,48.4,29.68,ENE,68,0.0,0.0,82,0.00,CLR,,0.00,WeatherDisplay:10.37,2013-06-20 08:15:00,
2013-06-20 01:20:00,53.8,48.4,29.68,SSE,158,0.0,0.0,82,0.00,CLR,,0.00,WeatherDisplay:10.37,2013-06-20 08:20:00,
2013-06-20 01:25:00,53.8,48.4,29.68,SSE,158,0.0,0.0,82,0.00,CLR,,0.00,WeatherDisplay:10.37,2013-06-20 08:25:00,
2013-06-20 01:31:00,54.0,48.6,29.68,SSE,158,0.0,0.0,82,0.00,CLR,,0.00,WeatherDisplay:10.37,2013-06-20 08:31:00,
2013-06-20 01:37:00,54.0,48.6,29.68,South,180,0.0,0.0,82,0.00,CLR,,0.00,WeatherDisplay:10.37,2013-06-20 08:37:00,
2013-06-20 01:42:00,54.0,48.6,29.67,SSE,158,0.0,0.0,82,0.00,CLR,,0.00,WeatherDisplay:10.37,2013-06-20 08:42:00,
2013-06-20 01:48:00,54.0,48.6,29.67,SE,135,0.0,0.0,82,0.00,CLR,,0.00,WeatherDisplay:10.37,2013-06-20 08:48:00,
2013-06-20 01:54:00,54.0,48.6,29.67,South,180,0.0,0.0,82,0.00,CLR,,0.00,WeatherDisplay:10.37,2013-06-20 08:54:00,
2013-06-20 01:59:00,54.1,48.8,29.67,South,180,1.3,1.3,82,0.00,CLR,,0.00,WeatherDisplay:10.37,2013-06-20 08:59:00,
2013-06-20 02:04:00,54.0,48.6,29.67,SSE,158,0.0,0.0,82,0.00,CLR,,0.00,WeatherDisplay:10.37,2013-06-20 09:04:00,
2013-06-20 02:09:00,54.0,48.6,29.67,ENE,68,0.0,0.0,82,0.00,CLR,,0.00,WeatherDisplay:10.37,2013-06-20 09:09:00,
2013-06-20 02:14:00,54.0,48.6,29.66,South,180,0.0,0.0,82,0.00,CLR,,0.00,WeatherDisplay:10.37,2013-06-20 09:14:00,
2013-06-20 02:20:00,54.0,48.6,29.66,SSE,158,0.0,0.0,82,0.00,CLR,,0.00,WeatherDisplay:10.37,2013-06-20 09:20:00,
2013-06-20 02:25:00,54.0,48.6,29.66,East,90,0.0,0.0,82,0.00,CLR,,0.00,WeatherDisplay:10.37,2013-06-20 09:25:00,
2013-06-20 02:30:00,54.0,48.6,29.67,ESE,112,0.0,0.0,82,0.00,CLR,,0.00,WeatherDisplay:10.37,2013-06-20 09:30:00,
2013-06-20 02:35:00,54.0,48.6,29.66,ENE,68,0.0,0.0,82,0.00,CLR,,0.00,WeatherDisplay:10.37,2013-06-20 09:35:00,
2013-06-20 02:40:00,54.0,48.6,29.66,SSE,158,0.0,0.0,82,0.00,CLR,,0.00,WeatherDisplay:10.37,2013-06-20 09:40:00,
2013-06-20 02:46:00,54.0,48.6,29.66,SSE,158,0.0,0.0,82,0.00,CLR,,0.00,WeatherDisplay:10.37,2013-06-20 09:46:00,
2013-06-20 02:51:00,53.8,48.4,29.66,WSW,248,0.0,0.0,82,0.00,CLR,,0.00,WeatherDisplay:10.37,2013-06-20 09:51:00,
2013-06-20 02:56:00,53.8,48.4,29.66,ESE,112,0.0,0.0,82,0.00,CLR,,0.00,WeatherDisplay:10.37,2013-06-20 09:56:00,
2013-06-20 03:01:00,53.8,48.4,29.66,SSE,158,0.0,0.0,82,0.00,CLR,,0.00,WeatherDisplay:10.37,2013-06-20 10:01:00,
2013-06-20 03:07:00,53.8,48.4,29.66,SE,135,0.0,0.0,82,0.00,CLR,,0.00,WeatherDisplay:10.37,2013-06-20 10:07:00,
2013-06-20 03:12:00,53.8,48.4,29.65,South,180,0.0,0.0,82,0.00,CLR,,0.00,WeatherDisplay:10.37,2013-06-20 10:12:00,
2013-06-20 03:18:00,53.8,48.4,29.65,SE,135,0.0,0.0,82,0.00,CLR,,0.00,WeatherDisplay:10.37,2013-06-20 10:18:00,
2013-06-20 03:23:00,53.8,48.4,29.66,South,180,0.0,0.0,82,0.00,CLR,,0.00,WeatherDisplay:10.37,2013-06-20 10:23:00,
2013-06-20 03:29:00,53.8,48.4,29.66,ESE,112,0.0,0.0,82,0.00,CLR,,0.00,WeatherDisplay:10.37,2013-06-20 10:29:00,
2013-06-20 03:34:00,53.8,48.4,29.65,SE,135,0.0,0.0,82,0.00,CLR,,0.00,WeatherDisplay:10.37,2013-06-20 10:34:00,
2013-06-20 03:40:00,53.8,48.4,29.65,ESE,112,0.0,0.0,82,0.00,CLR,,0.00,WeatherDisplay:10.37,2013-06-20 10:40:00,
2013-06-20 03:45:00,53.8,48.4,29.65,SSE,158,0.0,0.0,82,0.00,CLR,,0.00,WeatherDisplay:10.37,2013-06-20 10:45:00,
2013-06-20 03:50:00,53.8,48.4,29.65,ESE,112,0.0,0.0,82,0.00,CLR,,0.00,WeatherDisplay:10.37,2013-06-20 10:50:00,
2013-06-20 03:55:00,53.8,48.7,29.65,SSE,158,0.0,0.0,83,0.00,CLR,,0.00,WeatherDisplay:10.37,2013-06-20 10:55:00,
2013-06-20 04:00:00,53.8,48.7,29.65,SSE,158,0.0,0.0,83,0.00,CLR,,0.00,WeatherDisplay:10.37,2013-06-20 11:00:00,
2013-06-20 04:06:00,53.8,48.7,29.65,ESE,112,0.0,0.0,83,0.00,CLR,,0.00,WeatherDisplay:10.37,2013-06-20 11:06:00,
2013-06-20 04:12:00,53.8,48.7,29.65,SSE,158,0.0,0.0,83,0.00,CLR,,0.00,WeatherDisplay:10.37,2013-06-20 11:12:00,
2013-06-20 04:17:00,53.8,48.7,29.65,SSW,202,0.0,0.0,83,0.00,CLR,,0.00,WeatherDisplay:10.37,2013-06-20 11:17:00,
2013-06-20 04:22:00,53.8,48.7,29.65,ESE,112,0.0,0.0,83,0.00,CLR,,0.00,WeatherDisplay:10.37,2013-06-20 11:22:00,
2013-06-20 04:27:00,53.8,48.7,29.65,South,180,7.2,7.2,83,0.00,CLR,,0.00,WeatherDisplay:10.37,2013-06-20 11:27:00,
2013-06-20 04:32:00,53.8,48.7,29.65,SSW,202,0.0,0.0,83,0.00,CLR,,0.00,WeatherDisplay:10.37,2013-06-20 11:32:00,
2013-06-20 04:37:00,53.8,48.7,29.65,SSE,158,0.0,0.0,83,0.00,CLR,,0.00,WeatherDisplay:10.37,2013-06-20 11:37:00,
2013-06-20 04:42:00,53.8,48.7,29.65,SE,135,0.0,0.0,83,0.00,CLR,,0.00,WeatherDisplay:10.37,2013-06-20 11:42:00,
2013-06-20 04:47:00,53.8,48.7,29.65,ESE,112,0.0,0.0,83,0.00,CLR,,0.00,WeatherDisplay:10.37,2013-06-20 11:47:00,
2013-06-20 04:52:00,53.8,48.7,29.65,SE,135,0.0,0.0,83,0.00,CLR,,0.00,WeatherDisplay:10.37,2013-06-20 11:52:00,
2013-06-20 04:57:00,53.8,48.7,29.65,SSE,158,2.3,2.3,83,0.00,CLR,,0.00,WeatherDisplay:10.37,2013-06-20 11:57:00,
2013-06-20 05:02:00,53.8,48.7,29.65,SE,135,0.0,0.0,83,0.00,CLR,,0.00,WeatherDisplay:10.37,2013-06-20 12:02:00,
2013-06-20 05:07:00,53.8,48.7,29.65,ESE,112,0.0,0.0,83,0.00,CLR,,0.00,WeatherDisplay:10.37,2013-06-20 12:07:00,
2013-06-20 05:12:00,53.8,48.4,29.65,SSE,158,0.0,0.0,82,0.00,CLR,,0.00,WeatherDisplay:10.37,2013-06-20 12:12:00,
2013-06-20 05:17:00,53.8,48.7,29.65,South,180,0.0,0.0,83,0.00,CLR,,0.00,WeatherDisplay:10.37,2013-06-20 12:17:00,
2013-06-20 05:22:00,53.8,48.7,29.65,ESE,112,0.0,0.0,83,0.00,CLR,,0.00,WeatherDisplay:10.37,2013-06-20 12:22:00,
2013-06-20 05:27:00,53.8,48.4,29.65,ESE,112,0.0,0.0,82,0.00,CLR,,0.00,WeatherDisplay:10.37,2013-06-20 12:27:00,
2013-06-20 05:32:00,53.8,48.4,29.65,East,90,0.0,0.0,82,0.00,CLR,,0.00,WeatherDisplay:10.37,2013-06-20 12:32:00,
2013-06-20 05:37:00,53.8,48.4,29.65,SSE,158,0.0,0.0,82,0.00,CLR,,0.00,WeatherDisplay:10.37,2013-06-20 12:37:00,
2013-06-20 05:42:00,53.8,48.4,29.65,ESE,112,0.0,0.0,82,0.00,CLR,,0.00,WeatherDisplay:10.37,2013-06-20 12:42:00,
2013-06-20 05:47:00,53.6,48.2,29.65,SE,135,0.0,0.0,82,0.00,CLR,,0.00,WeatherDisplay:10.37,2013-06-20 12:47:00,
2013-06-20 05:52:00,53.8,48.4,29.64,South,180,0.0,0.0,82,0.00,CLR,,0.00,WeatherDisplay:10.37,2013-06-20 12:52:00,
2013-06-20 05:57:00,53.8,48.7,29.64,SSW,202,0.0,0.0,83,0.00,CLR,,0.00,WeatherDisplay:10.37,2013-06-20 12:57:00,
2013-06-20 06:02:00,53.8,48.4,29.64,ESE,112,0.0,0.0,82,0.00,CLR,,0.00,WeatherDisplay:10.37,2013-06-20 13:02:00,
2013-06-20 06:07:00,53.8,48.4,29.64,SE,135,0.0,0.0,82,0.00,CLR,,0.00,WeatherDisplay:10.37,2013-06-20 13:07:00,
2013-06-20 06:12:00,53.6,48.2,29.64,ESE,112,0.0,0.0,82,0.00,CLR,,0.00,WeatherDisplay:10.37,2013-06-20 13:12:00,
2013-06-20 06:17:00,53.8,48.4,29.64,SW,225,0.0,0.0,82,0.00,CLR,,0.00,WeatherDisplay:10.37,2013-06-20 13:17:00,
2013-06-20 06:22:00,53.6,48.2,29.64,SE,135,0.0,0.0,82,0.00,CLR,,0.00,WeatherDisplay:10.37,2013-06-20 13:22:00,
2013-06-20 06:27:00,53.6,48.2,29.64,ENE,68,0.0,0.0,82,0.00,CLR,,0.00,WeatherDisplay:10.37,2013-06-20 13:27:00,
2013-06-20 06:32:00,53.8,48.4,29.64,SSE,158,0.0,0.0,82,0.00,CLR,,0.00,WeatherDisplay:10.37,2013-06-20 13:32:00,
2013-06-20 06:37:00,53.8,48.4,29.64,SE,135,1.2,1.2,82,0.00,CLR,,0.00,WeatherDisplay:10.37,2013-06-20 13:37:00,
2013-06-20 06:42:00,53.8,48.4,29.64,ENE,68,0.0,0.0,82,0.00,CLR,,0.00,WeatherDisplay:10.37,2013-06-20 13:42:00,
2013-06-20 06:47:00,53.8,48.4,29.64,SSE,158,0.0,0.0,82,0.00,CLR,,0.00,WeatherDisplay:10.37,2013-06-20 13:47:00,
2013-06-20 06:52:00,53.8,48.4,29.64,NE,45,0.0,0.0,82,0.00,CLR,,0.00,WeatherDisplay:10.37,2013-06-20 13:52:00,
2013-06-20 06:57:00,53.8,48.4,29.64,SSE,158,0.0,0.0,82,0.00,CLR,,0.00,WeatherDisplay:10.37,2013-06-20 13:57:00,
2013-06-20 07:02:00,53.8,48.4,29.64,SE,135,0.0,0.0,82,0.00,CLR,,0.00,WeatherDisplay:10.37,2013-06-20 14:02:00,
2013-06-20 07:07:00,53.8,48.4,29.64,SE,135,0.0,0.0,82,0.00,CLR,,0.00,WeatherDisplay:10.37,2013-06-20 14:07:00,
2013-06-20 07:12:00,53.8,48.4,29.64,SE,135,0.0,0.0,82,0.00,CLR,,0.00,WeatherDisplay:10.37,2013-06-20 14:12:00,
2013-06-20 07:17:00,53.8,48.4,29.64,SSE,158,0.0,0.0,82,0.00,CLR,,0.00,WeatherDisplay:10.37,2013-06-20 14:17:00,
2013-06-20 07:22:00,53.8,48.4,29.64,SE,135,0.0,0.0,82,0.00,CLR,,0.00,WeatherDisplay:10.37,2013-06-20 14:22:00,
2013-06-20 07:27:00,53.8,48.4,29.64,East,90,0.0,0.0,82,0.00,CLR,,0.00,WeatherDisplay:10.37,2013-06-20 14:27:00,
2013-06-20 07:32:00,53.8,48.4,29.64,SSE,158,2.3,2.3,82,0.00,CLR,,0.00,WeatherDisplay:10.37,2013-06-20 14:32:00,
2013-06-20 07:37:00,53.4,48.1,29.64,SSW,202,0.0,0.0,82,0.00,CLR,,0.00,WeatherDisplay:10.37,2013-06-20 14:37:00,
2013-06-20 07:42:00,53.4,48.4,29.64,SSE,158,0.0,0.0,83,0.00,CLR,,0.00,WeatherDisplay:10.37,2013-06-20 14:42:00,
2013-06-20 07:47:00,53.4,48.7,29.64,SSE,158,0.0,0.0,84,0.00,CLR,,0.00,WeatherDisplay:10.37,2013-06-20 14:47:00,
2013-06-20 07:52:00,53.4,48.7,29.64,SSE,158,0.0,0.0,84,0.00,CLR,,0.00,WeatherDisplay:10.37,2013-06-20 14:52:00,
2013-06-20 07:57:00,53.4,48.7,29.64,SSE,158,0.0,0.0,84,0.00,CLR,,0.00,WeatherDisplay:10.37,2013-06-20 14:57:00,
2013-06-20 08:02:00,53.4,49.0,29.63,SSE,158,0.0,0.0,85,0.00,CLR,,0.00,WeatherDisplay:10.37,2013-06-20 15:02:00,
2013-06-20 08:07:00,53.4,49.0,29.64,South,180,0.0,0.0,85,0.00,CLR,,0.00,WeatherDisplay:10.37,2013-06-20 15:07:00,
2013-06-20 08:12:00,53.8,49.4,29.63,South,180,0.0,0.0,85,0.00,CLR,,0.00,WeatherDisplay:10.37,2013-06-20 15:12:00,
2013-06-20 08:17:00,53.8,49.4,29.63,SE,135,0.0,0.0,85,0.00,CLR,,0.00,WeatherDisplay:10.37,2013-06-20 15:17:00,
2013-06-20 08:22:00,54.1,50.0,29.63,SE,135,0.0,0.0,86,0.00,CLR,,0.00,WeatherDisplay:10.37,2013-06-20 15:22:00,
2013-06-20 08:27:00,54.1,49.7,29.64,SE,135,0.0,0.0,85,0.00,CLR,,0.00,WeatherDisplay:10.37,2013-06-20 15:27:00,
2013-06-20 08:32:00,54.1,49.7,29.64,SE,135,0.0,0.0,85,0.00,CLR,,0.00,WeatherDisplay:10.37,2013-06-20 15:32:00,
2013-06-20 08:37:00,54.3,50.2,29.64,SE,135,0.0,0.0,86,0.00,CLR,,0.00,WeatherDisplay:10.37,2013-06-20 15:37:00,
2013-06-20 08:42:00,54.5,50.4,29.64,SE,135,0.0,0.0,86,0.00,CLR,,0.00,WeatherDisplay:10.37,2013-06-20 15:42:00,
2013-06-20 08:47:00,54.7,50.6,29.63,SE,135,0.0,0.0,86,0.00,CLR,,0.00,WeatherDisplay:10.37,2013-06-20 15:47:00,
2013-06-20 08:52:00,54.9,50.8,29.63,SE,135,0.0,0.0,86,0.00,CLR,,0.00,WeatherDisplay:10.37,2013-06-20 15:52:00,
2013-06-20 08:57:00,55.2,51.1,29.63,SE,135,0.0,0.0,86,0.00,CLR,,0.00,WeatherDisplay:10.37,2013-06-20 15:57:00,
2013-06-20 09:02:00,55.2,51.1,29.64,SE,135,0.0,0.0,86,0.00,CLR,,0.00,WeatherDisplay:10.37,2013-06-20 16:02:00,
2013-06-20 09:07:00,55.2,50.8,29.64,SE,135,0.0,0.0,85,0.00,CLR,,0.00,WeatherDisplay:10.37,2013-06-20 16:07:00,
2013-06-20 09:12:00,55.2,50.8,29.64,SE,135,0.0,0.0,85,0.00,CLR,,0.00,WeatherDisplay:10.37,2013-06-20 16:12:00,
2013-06-20 09:17:00,55.0,50.9,29.64,ESE,112,0.0,0.0,86,0.00,CLR,,0.00,WeatherDisplay:10.37,2013-06-20 16:17:00,
2013-06-20 09:22:00,55.0,50.6,29.64,ESE,112,0.0,0.0,85,0.00,CLR,,0.00,WeatherDisplay:10.37,2013-06-20 16:22:00,
2013-06-20 09:27:00,55.0,50.9,29.63,ESE,112,0.0,0.0,86,0.00,CLR,,0.00,WeatherDisplay:10.37,2013-06-20 16:27:00,
2013-06-20 09:32:00,55.0,50.9,29.64,ESE,112,0.0,0.0,86,0.00,CLR,,0.00,WeatherDisplay:10.37,2013-06-20 16:32:00,
2013-06-20 09:37:00,55.2,51.1,29.64,ESE,112,0.0,0.0,86,0.00,CLR,,0.00,WeatherDisplay:10.37,2013-06-20 16:37:00,
2013-06-20 09:42:00,55.6,51.5,29.63,ESE,112,0.0,0.0,86,0.00,CLR,,0.00,WeatherDisplay:10.37,2013-06-20 16:42:00,
2013-06-20 09:47:00,55.8,51.6,29.63,ESE,112,0.0,0.0,86,0.00,CLR,,0.00,WeatherDisplay:10.37,2013-06-20 16:47:00,
2013-06-20 09:52:00,56.1,52.0,29.63,ESE,112,0.0,0.0,86,0.00,CLR,,0.00,WeatherDisplay:10.37,2013-06-20 16:52:00,
2013-06-20 09:57:00,56.3,52.2,29.63,ESE,112,0.0,0.0,86,0.00,CLR,,0.00,WeatherDisplay:10.37,2013-06-20 16:57:00,
2013-06-20 10:02:00,56.5,52.0,29.63,West,270,0.0,0.0,85,0.00,CLR,,0.00,WeatherDisplay:10.37,2013-06-20 17:02:00,
2013-06-20 10:07:00,56.8,52.1,29.63,West,270,5.1,5.1,84,0.00,CLR,,0.00,WeatherDisplay:10.37,2013-06-20 17:07:00,
2013-06-20 10:12:00,57.0,51.9,29.63,NW,315,0.0,0.0,83,0.00,CLR,,0.00,WeatherDisplay:10.37,2013-06-20 17:12:00,
2013-06-20 10:17:00,57.6,52.1,29.63,ENE,68,0.0,0.0,82,0.00,CLR,,0.00,WeatherDisplay:10.37,2013-06-20 17:17:00,
2013-06-20 10:23:00,58.3,52.1,29.63,West,270,0.0,0.0,80,0.00,CLR,,0.00,WeatherDisplay:10.37,2013-06-20 17:23:00,
2013-06-20 10:28:00,58.8,52.3,29.63,ESE,112,0.0,0.0,79,0.00,CLR,,0.00,WeatherDisplay:10.37,2013-06-20 17:28:00,
2013-06-20 10:33:00,58.8,52.0,29.63,WSW,248,1.2,1.2,78,0.00,CLR,,0.00,WeatherDisplay:10.37,2013-06-20 17:33:00,
2013-06-20 10:39:00,58.8,51.6,29.63,South,180,0.0,0.0,77,0.00,CLR,,0.00,WeatherDisplay:10.37,2013-06-20 17:39:00,
2013-06-20 10:44:00,59.2,52.0,29.63,ENE,68,0.0,0.0,77,0.00,CLR,,0.00,WeatherDisplay:10.37,2013-06-20 17:44:00,
2013-06-20 10:50:00,59.7,52.1,29.63,NNW,338,0.0,0.0,76,0.00,CLR,,0.00,WeatherDisplay:10.37,2013-06-20 17:50:00,
2013-06-20 10:55:00,60.1,52.5,29.63,East,90,1.2,1.2,76,0.00,CLR,,0.00,WeatherDisplay:10.37,2013-06-20 17:55:00,
2013-06-20 11:00:00,60.3,52.3,29.63,SSW,202,0.0,0.0,75,0.00,CLR,,0.00,WeatherDisplay:10.37,2013-06-20 18:00:00,
2013-06-20 11:06:00,60.4,52.1,29.63,NW,315,3.5,3.5,74,0.00,CLR,,0.00,WeatherDisplay:10.37,2013-06-20 18:06:00,
2013-06-20 11:11:00,60.4,51.7,29.63,SSW,202,0.0,0.0,73,0.00,CLR,,0.00,WeatherDisplay:10.37,2013-06-20 18:11:00,
2013-06-20 11:16:00,60.3,51.9,29.63,South,180,0.0,0.0,74,0.00,CLR,,0.00,WeatherDisplay:10.37,2013-06-20 18:16:00,
2013-06-20 11:21:00,60.4,51.7,29.63,WNW,292,0.0,0.0,73,0.00,CLR,,0.00,WeatherDisplay:10.37,2013-06-20 18:21:00,
2013-06-20 11:27:00,60.4,51.7,29.63,South,180,0.0,0.0,73,0.00,CLR,,0.00,WeatherDisplay:10.37,2013-06-20 18:27:00,
2013-06-20 11:32:00,60.4,51.7,29.63,SW,225,0.0,0.0,73,0.00,CLR,,0.00,WeatherDisplay:10.37,2013-06-20 18:32:00,
2013-06-20 11:37:00,60.3,51.2,29.63,SSE,158,0.0,0.0,72,0.00,CLR,,0.00,WeatherDisplay:10.37,2013-06-20 18:37:00,
2013-06-20 11:42:00,60.1,51.4,29.63,ENE,68,0.0,0.0,73,0.00,CLR,,0.00,WeatherDisplay:10.37,2013-06-20 18:42:00,
2013-06-20 11:48:00,59.9,51.2,29.64,SW,225,3.5,3.5,73,0.00,CLR,,0.00,WeatherDisplay:10.37,2013-06-20 18:48:00,
2013-06-20 11:53:00,59.9,51.2,29.63,South,180,0.0,0.0,73,0.00,CLR,,0.00,WeatherDisplay:10.37,2013-06-20 18:53:00,
2013-06-20 11:59:00,59.5,50.9,29.63,South,180,0.0,0.0,73,0.00,CLR,,0.00,WeatherDisplay:10.37,2013-06-20 18:59:00,
2013-06-20 12:04:00,59.5,50.9,29.64,NNE,22,1.2,1.6,73,0.00,CLR,,0.00,WeatherDisplay:10.37,2013-06-20 19:04:00,
2013-06-20 12:09:00,59.5,51.2,29.64,SSW,202,0.0,0.0,74,0.00,CLR,,0.00,WeatherDisplay:10.37,2013-06-20 19:09:00,
2013-06-20 12:14:00,59.7,51.4,29.64,ESE,112,0.0,0.0,74,0.00,CLR,,0.00,WeatherDisplay:10.37,2013-06-20 19:14:00,
2013-06-20 12:19:00,60.1,52.1,29.64,SE,135,2.3,2.3,75,0.00,CLR,,0.00,WeatherDisplay:10.37,2013-06-20 19:19:00,
2013-06-20 12:24:00,60.4,52.1,29.64,South,180,0.0,0.0,74,0.00,CLR,,0.00,WeatherDisplay:10.37,2013-06-20 19:24:00,
2013-06-20 12:29:00,60.4,51.7,29.64,SSE,158,3.5,3.5,73,0.00,CLR,,0.00,WeatherDisplay:10.37,2013-06-20 19:29:00,
2013-06-20 12:34:00,60.6,51.9,29.63,SSW,202,0.2,0.2,73,0.00,CLR,,0.00,WeatherDisplay:10.37,2013-06-20 19:34:00,
2013-06-20 12:39:00,60.6,51.9,29.64,NE,45,0.0,0.0,73,0.00,CLR,,0.00,WeatherDisplay:10.37,2013-06-20 19:39:00,
2013-06-20 12:44:00,61.0,52.3,29.64,ENE,68,0.0,0.0,73,0.00,CLR,,0.00,WeatherDisplay:10.37,2013-06-20 19:44:00,
2013-06-20 12:49:00,61.0,52.3,29.64,SE,135,0.0,0.0,73,0.00,CLR,,0.00,WeatherDisplay:10.37,2013-06-20 19:49:00,
2013-06-20 12:54:00,61.2,52.4,29.64,SSE,158,1.2,1.2,73,0.00,CLR,,0.00,WeatherDisplay:10.37,2013-06-20 19:54:00,
2013-06-20 12:59:00,61.3,52.2,29.64,SW,225,0.0,0.0,72,0.00,CLR,,0.00,WeatherDisplay:10.37,2013-06-20 19:59:00,
2013-06-20 13:04:00,61.5,52.4,29.64,SW,225,0.0,0.0,72,0.00,CLR,,0.00,WeatherDisplay:10.37,2013-06-20 20:04:00,
2013-06-20 13:09:00,61.5,52.0,29.64,North,0,4.6,4.6,71,0.00,CLR,,0.00,WeatherDisplay:10.37,2013-06-20 20:09:00,
2013-06-20 13:14:00,61.5,51.6,29.64,South,180,4.7,4.7,70,0.00,CLR,,0.00,WeatherDisplay:10.37,2013-06-20 20:14:00,
2013-06-20 13:19:00,61.3,51.5,29.64,NE,45,2.3,2.3,70,0.00,CLR,,0.00,WeatherDisplay:10.37,2013-06-20 20:19:00,
2013-06-20 13:24:00,61.2,51.7,29.64,SSE,158,0.0,0.0,71,0.00,CLR,,0.00,WeatherDisplay:10.37,2013-06-20 20:24:00,
2013-06-20 13:29:00,61.0,51.5,29.64,West,270,0.0,0.0,71,0.00,CLR,,0.00,WeatherDisplay:10.37,2013-06-20 20:29:00,
2013-06-20 13:34:00,61.0,51.1,29.64,East,90,0.0,0.0,70,0.00,CLR,,0.00,WeatherDisplay:10.37,2013-06-20 20:34:00,
2013-06-20 13:39:00,60.6,50.8,29.64,SW,225,3.5,3.5,70,0.00,CLR,,0.00,WeatherDisplay:10.37,2013-06-20 20:39:00,
2013-06-20 13:44:00,60.6,50.8,29.64,East,90,5.8,0.0,70,0.00,CLR,,0.00,WeatherDisplay:10.37,2013-06-20 20:44:00,
2013-06-20 13:49:00,60.6,50.8,29.65,SSW,202,0.0,0.0,70,0.00,CLR,,0.00,WeatherDisplay:10.37,2013-06-20 20:49:00,
2013-06-20 13:54:00,60.6,50.8,29.65,SW,225,0.0,0.0,70,0.00,CLR,,0.00,WeatherDisplay:10.37,2013-06-20 20:54:00,
2013-06-20 13:59:00,60.4,51.0,29.64,SSE,158,6.9,0.0,71,0.00,CLR,,0.00,WeatherDisplay:10.37,2013-06-20 20:59:00,
2013-06-20 14:04:00,60.1,50.6,29.64,NNE,22,0.0,0.0,71,0.00,CLR,,0.00,WeatherDisplay:10.37,2013-06-20 21:04:00,
2013-06-20 14:09:00,59.9,50.8,29.64,NE,45,0.0,0.0,72,0.00,CLR,,0.00,WeatherDisplay:10.37,2013-06-20 21:09:00,
2013-06-20 14:15:00,59.9,51.2,29.65,East,90,0.0,0.0,73,0.00,CLR,,0.00,WeatherDisplay:10.37,2013-06-20 21:15:00,
2013-06-20 14:20:00,59.9,51.2,29.65,ENE,68,0.0,0.0,73,0.00,CLR,,0.00,WeatherDisplay:10.37,2013-06-20 21:20:00,
2013-06-20 14:25:00,60.1,51.4,29.65,West,270,0.0,0.0,73,0.00,CLR,,0.00,WeatherDisplay:10.37,2013-06-20 21:25:00,
2013-06-20 14:30:00,59.9,51.2,29.65,NW,315,0.0,0.0,73,0.00,CLR,,0.00,WeatherDisplay:10.37,2013-06-20 21:30:00,
2013-06-20 14:36:00,59.7,51.4,29.65,SSE,158,0.0,0.0,74,0.00,CLR,,0.00,WeatherDisplay:10.37,2013-06-20 21:36:00,
2013-06-20 14:41:00,59.5,51.2,29.65,East,90,0.0,0.0,74,0.00,CLR,,0.00,WeatherDisplay:10.37,2013-06-20 21:41:00,
2013-06-20 14:46:00,59.4,51.4,29.65,SSW,202,5.8,5.8,75,0.00,CLR,,0.00,WeatherDisplay:10.37,2013-06-20 21:46:00,
2013-06-20 14:51:00,59.0,51.1,29.65,West,270,0.0,0.0,75,0.00,CLR,,0.00,WeatherDisplay:10.37,2013-06-20 21:51:00,
2013-06-20 14:56:00,58.8,50.9,29.66,SSE,158,0.0,0.0,75,0.02,RA,,0.02,WeatherDisplay:10.37,2013-06-20 21:56:00,
2013-06-20 15:01:00,58.8,51.3,29.66,North,0,0.0,0.0,76,0.02,RA,,0.02,WeatherDisplay:10.37,2013-06-20 22:01:00,
2013-06-20 15:06:00,58.5,50.9,29.66,ESE,112,0.0,0.0,76,0.02,CLR,,0.02,WeatherDisplay:10.37,2013-06-20 22:06:00,
2013-06-20 15:11:00,57.9,50.8,29.66,ENE,68,0.0,0.0,77,0.02,CLR,,0.02,WeatherDisplay:10.37,2013-06-20 22:11:00,
2013-06-20 15:16:00,57.9,50.8,29.66,WNW,292,8.1,0.0,77,0.02,CLR,,0.02,WeatherDisplay:10.37,2013-06-20 22:16:00,
2013-06-20 15:21:00,57.9,50.8,29.67,SW,225,0.0,0.0,77,0.02,CLR,,0.02,WeatherDisplay:10.37,2013-06-20 22:21:00,
2013-06-20 15:26:00,57.7,50.9,29.67,SE,135,8.1,8.1,78,0.02,CLR,,0.02,WeatherDisplay:10.37,2013-06-20 22:26:00,
2013-06-20 15:31:00,57.7,51.3,29.67,SSE,158,0.0,0.0,79,0.02,CLR,,0.02,WeatherDisplay:10.37,2013-06-20 22:31:00,
2013-06-20 15:37:00,57.6,51.1,29.67,ENE,68,3.5,3.5,79,0.02,CLR,,0.02,WeatherDisplay:10.37,2013-06-20 22:37:00,
2013-06-20 15:42:00,57.4,50.9,29.67,NNE,22,0.0,0.0,79,0.02,CLR,,0.02,WeatherDisplay:10.37,2013-06-20 22:42:00,
2013-06-20 15:47:00,57.2,50.7,29.67,ENE,68,0.0,0.0,79,0.06,RA,,0.06,WeatherDisplay:10.37,2013-06-20 22:47:00,
2013-06-20 15:52:00,57.0,50.6,29.67,WSW,248,3.6,3.6,79,0.06,RA,,0.06,WeatherDisplay:10.37,2013-06-20 22:52:00,
2013-06-20 15:57:00,56.8,50.4,29.68,NNE,22,0.0,0.0,79,0.04,,,0.06,WeatherDisplay:10.37,2013-06-20 22:57:00,
2013-06-20 16:02:00,56.8,50.4,29.68,East,90,0.0,0.0,79,0.04,CLR,,0.06,WeatherDisplay:10.37,2013-06-20 23:02:00,
2013-06-20 16:07:00,56.8,51.1,29.68,SE,135,0.0,0.0,81,0.04,CLR,,0.06,WeatherDisplay:10.37,2013-06-20 23:07:00,
2013-06-20 16:12:00,56.5,50.7,29.68,WSW,248,0.0,0.0,81,0.04,CLR,,0.06,WeatherDisplay:10.37,2013-06-20 23:12:00,
2013-06-20 16:17:00,56.8,51.1,29.69,South,180,1.6,1.6,81,0.04,CLR,,0.06,WeatherDisplay:10.37,2013-06-20 23:17:00,
2013-06-20 16:23:00,56.7,51.2,29.69,NNE,22,0.0,0.0,82,0.04,CLR,,0.06,WeatherDisplay:10.37,2013-06-20 23:23:00,
2013-06-20 16:28:00,56.8,51.4,29.69,SSE,158,0.0,0.0,82,0.04,CLR,,0.10,WeatherDisplay:10.37,2013-06-20 23:28:00,
2013-06-20 16:33:00,56.8,51.4,29.69,SSW,202,0.0,0.0,82,0.08,RA,,0.10,WeatherDisplay:10.37,2013-06-20 23:33:00,
2013-06-20 16:38:00,56.8,51.4,29.69,South,180,0.0,0.0,82,0.08,RA,,0.10,WeatherDisplay:10.37,2013-06-20 23:38:00,
2013-06-20 16:43:00,56.8,51.7,29.70,SSW,202,0.0,0.0,83,0.08,CLR,,0.10,WeatherDisplay:10.37,2013-06-20 23:43:00,
2013-06-20 16:49:00,56.7,51.9,29.70,SW,225,0.0,0.0,84,0.08,RA,,0.14,WeatherDisplay:10.37,2013-06-20 23:49:00,
2013-06-20 16:54:00,56.8,52.1,29.70,SE,135,0.0,0.0,84,0.08,RA,,0.14,WeatherDisplay:10.37,2013-06-20 23:54:00,
2013-06-20 16:59:00,56.8,52.1,29.70,WNW,292,0.0,0.0,84,0.08,CLR,,0.14,WeatherDisplay:10.37,2013-06-20 23:59:00,
2013-06-20 17:04:00,56.8,51.7,29.71,West,270,0.0,0.0,83,0.08,CLR,,0.14,WeatherDisplay:10.37,2013-06-21 00:04:00,
2013-06-20 17:09:00,56.8,51.7,29.70,South,180,0.0,0.0,83,0.08,CLR,,0.14,WeatherDisplay:10.37,2013-06-21 00:09:00,
2013-06-20 17:14:00,56.8,52.1,29.71,SW,225,0.0,0.0,84,0.08,CLR,,0.14,WeatherDisplay:10.37,2013-06-21 00:14:00,
2013-06-20 17:19:00,56.5,51.7,29.71,West,270,0.0,0.0,84,0.08,CLR,,0.14,WeatherDisplay:10.37,2013-06-21 00:19:00,
2013-06-20 17:24:00,56.5,51.7,29.71,West,270,0.0,0.0,84,0.08,CLR,,0.14,WeatherDisplay:10.37,2013-06-21 00:24:00,
2013-06-20 17:29:00,56.5,51.7,29.71,SSE,158,0.0,0.0,84,0.04,CLR,,0.14,WeatherDisplay:10.37,2013-06-21 00:29:00,
2013-06-20 17:34:00,56.5,51.7,29.71,SW,225,0.0,0.0,84,0.04,CLR,,0.14,WeatherDisplay:10.37,2013-06-21 00:34:00,
2013-06-20 17:39:00,56.3,51.8,29.71,SSE,158,0.0,0.0,85,0.04,CLR,,0.14,WeatherDisplay:10.37,2013-06-21 00:39:00,
2013-06-20 17:44:00,56.1,51.7,29.71,SSE,158,0.0,0.0,85,0.04,CLR,,0.14,WeatherDisplay:10.37,2013-06-21 00:44:00,
2013-06-20 17:49:00,56.1,51.7,29.71,SSE,158,0.0,0.0,85,0.00,CLR,,0.14,WeatherDisplay:10.37,2013-06-21 00:49:00,
2013-06-20 17:54:00,56.1,51.7,29.71,ESE,112,0.0,0.0,85,0.04,RA,,0.18,WeatherDisplay:10.37,2013-06-21 00:54:00,
2013-06-20 17:59:00,55.9,51.5,29.71,ESE,112,0.0,0.0,85,0.04,RA,,0.18,WeatherDisplay:10.37,2013-06-21 00:59:00,
2013-06-20 18:04:00,55.9,51.5,29.71,South,180,0.0,0.0,85,0.04,,,0.18,WeatherDisplay:10.37,2013-06-21 01:04:00,
2013-06-20 18:09:00,55.9,51.5,29.71,SSW,202,0.0,0.0,85,0.04,CLR,,0.18,WeatherDisplay:10.37,2013-06-21 01:09:00,
2013-06-20 18:14:00,55.9,51.5,29.71,SSE,158,0.0,0.0,85,0.04,CLR,,0.18,WeatherDisplay:10.37,2013-06-21 01:14:00,
2013-06-20 18:19:00,55.8,51.3,29.71,SSE,158,0.0,0.0,85,0.04,CLR,,0.18,WeatherDisplay:10.37,2013-06-21 01:19:00,
2013-06-20 18:24:00,55.6,51.5,29.71,SW,225,0.0,0.0,86,0.04,CLR,,0.18,WeatherDisplay:10.37,2013-06-21 01:24:00,
2013-06-20 18:30:00,55.6,51.5,29.71,SSE,158,0.0,0.0,86,0.04,CLR,,0.18,WeatherDisplay:10.37,2013-06-21 01:30:00,
2013-06-20 18:35:00,55.4,51.3,29.71,SSE,158,0.0,0.0,86,0.04,CLR,,0.18,WeatherDisplay:10.37,2013-06-21 01:35:00,
2013-06-20 18:40:00,55.2,51.1,29.71,SSE,158,0.0,0.0,86,0.04,CLR,,0.18,WeatherDisplay:10.37,2013-06-21 01:40:00,
2013-06-20 18:45:00,55.2,51.1,29.71,SE,135,0.0,0.0,86,0.04,CLR,,0.18,WeatherDisplay:10.37,2013-06-21 01:45:00,
2013-06-20 18:50:00,55.2,51.1,29.71,SE,135,0.0,0.0,86,0.04,CLR,,0.18,WeatherDisplay:10.37,2013-06-21 01:50:00,
2013-06-20 18:55:00,55.2,51.1,29.71,SE,135,0.0,0.0,86,0.00,CLR,,0.18,WeatherDisplay:10.37,2013-06-21 01:55:00,
2013-06-20 19:00:00,55.0,50.9,29.71,SE,135,0.0,0.0,86,0.00,CLR,,0.18,WeatherDisplay:10.37,2013-06-21 02:00:00,
2013-06-20 19:06:00,54.9,50.8,29.72,SE,135,0.0,0.0,86,0.00,CLR,,0.18,WeatherDisplay:10.37,2013-06-21 02:06:00,
2013-06-20 19:11:00,54.9,51.1,29.73,SE,135,0.0,0.0,87,0.00,CLR,,0.18,WeatherDisplay:10.37,2013-06-21 02:11:00,
2013-06-20 19:16:00,54.9,51.1,29.72,SE,135,0.0,0.0,87,0.00,CLR,,0.18,WeatherDisplay:10.37,2013-06-21 02:16:00,
2013-06-20 19:21:00,54.9,51.1,29.72,SE,135,0.0,0.0,87,0.00,CLR,,0.18,WeatherDisplay:10.37,2013-06-21 02:21:00,
2013-06-20 19:26:00,54.7,50.9,29.73,SE,135,0.0,0.0,87,0.00,CLR,,0.18,WeatherDisplay:10.37,2013-06-21 02:26:00,
2013-06-20 19:31:00,54.7,50.9,29.73,SE,135,0.0,0.0,87,0.00,CLR,,0.18,WeatherDisplay:10.37,2013-06-21 02:31:00,
2013-06-20 19:36:00,54.5,50.7,29.73,SE,135,0.0,0.0,87,0.00,CLR,,0.18,WeatherDisplay:10.37,2013-06-21 02:36:00,
2013-06-20 19:41:00,54.3,50.5,29.73,South,180,0.0,0.0,87,0.00,CLR,,0.18,WeatherDisplay:10.37,2013-06-21 02:41:00,
2013-06-20 19:46:00,54.3,50.5,29.73,South,180,0.0,0.0,87,0.00,CLR,,0.18,WeatherDisplay:10.37,2013-06-21 02:46:00,
2013-06-20 19:51:00,54.3,50.5,29.74,South,180,0.0,0.0,87,0.00,CLR,,0.18,WeatherDisplay:10.37,2013-06-21 02:51:00,
2013-06-20 19:57:00,54.3,50.5,29.74,South,180,0.0,0.0,87,0.00,CLR,,0.18,WeatherDisplay:10.37,2013-06-21 02:57:00,
2013-06-20 20:02:00,54.1,50.4,29.74,South,180,0.0,0.0,87,0.00,CLR,,0.18,WeatherDisplay:10.37,2013-06-21 03:02:00,
2013-06-20 20:08:00,54.1,50.4,29.74,South,180,0.0,0.0,87,0.00,CLR,,0.18,WeatherDisplay:10.37,2013-06-21 03:08:00,
2013-06-20 20:13:00,54.1,50.4,29.74,South,180,0.0,0.0,87,0.00,CLR,,0.18,WeatherDisplay:10.37,2013-06-21 03:13:00,
2013-06-20 20:18:00,54.1,50.4,29.74,ESE,112,0.0,0.0,87,0.00,CLR,,0.18,WeatherDisplay:10.37,2013-06-21 03:18:00,
2013-06-20 20:23:00,54.1,50.4,29.74,ESE,112,0.0,0.0,87,0.04,RA,,0.22,WeatherDisplay:10.37,2013-06-21 03:23:00,
2013-06-20 20:29:00,54.1,50.7,29.74,ESE,112,0.0,0.0,88,0.04,RA,,0.22,WeatherDisplay:10.37,2013-06-21 03:29:00,
2013-06-20 20:34:00,54.1,50.7,29.75,ESE,112,0.0,0.0,88,0.04,CLR,,0.22,WeatherDisplay:10.37,2013-06-21 03:34:00,
2013-06-20 20:39:00,54.1,50.7,29.74,ESE,112,0.0,0.0,88,0.04,CLR,,0.22,WeatherDisplay:10.37,2013-06-21 03:39:00,
2013-06-20 20:44:00,54.0,50.5,29.75,ESE,112,0.0,0.0,88,0.04,CLR,,0.22,WeatherDisplay:10.37,2013-06-21 03:44:00,
2013-06-20 20:49:00,53.8,50.3,29.75,SSE,158,0.0,0.0,88,0.04,CLR,,0.22,WeatherDisplay:10.37,2013-06-21 03:49:00,
2013-06-20 20:54:00,53.8,50.3,29.75,SSE,158,0.0,0.0,88,0.04,CLR,,0.22,WeatherDisplay:10.37,2013-06-21 03:54:00,
2013-06-20 20:59:00,53.8,50.3,29.75,SSE,158,0.0,0.0,88,0.04,CLR,,0.22,WeatherDisplay:10.37,2013-06-21 03:59:00,
2013-06-20 21:01:00,53.8,50.3,29.75,SSE,158,0.0,0.0,88,0.04,CLR,,0.22,WeatherDisplay:10.37,2013-06-21 04:01:00,
2013-06-20 21:03:00,53.8,50.3,29.75,SSE,158,0.0,0.0,88,0.04,CLR,,0.22,WeatherDisplay:10.37,2013-06-21 04:03:00,
2013-06-20 21:04:00,53.8,50.3,29.75,SSE,158,0.0,0.0,88,0.04,CLR,,0.22,WeatherDisplay:10.37,2013-06-21 04:04:00,
2013-06-20 21:05:00,53.8,50.3,29.75,SSE,158,0.0,0.0,88,0.04,CLR,,0.22,WeatherDisplay:10.37,2013-06-21 04:05:00,
2013-06-20 21:10:00,53.8,50.3,29.75,SSE,158,0.0,0.0,88,0.04,CLR,,0.22,WeatherDisplay:10.37,2013-06-21 04:10:00,
2013-06-20 21:14:00,53.8,50.3,29.75,SSE,158,0.0,0.0,88,0.04,CLR,,0.22,WeatherDisplay:10.37,2013-06-21 04:14:00,
2013-06-20 21:19:00,53.8,50.6,29.75,SSE,158,0.0,0.0,89,0.04,CLR,,0.22,WeatherDisplay:10.37,2013-06-21 04:19:00,
2013-06-20 21:24:00,53.6,50.4,29.76,SSE,158,0.0,0.0,89,0.00,CLR,,0.22,WeatherDisplay:10.37,2013-06-21 04:24:00,
2013-06-20 21:29:00,53.4,50.3,29.76,SSE,158,0.0,0.0,89,0.00,CLR,,0.22,WeatherDisplay:10.37,2013-06-21 04:29:00,
2013-06-20 21:34:00,53.4,50.3,29.76,SSE,158,0.0,0.0,89,0.00,CLR,,0.22,WeatherDisplay:10.37,2013-06-21 04:34:00,
2013-06-20 21:39:00,53.4,50.3,29.76,SSE,158,0.0,0.0,89,0.00,CLR,,0.22,WeatherDisplay:10.37,2013-06-21 04:39:00,
2013-06-20 21:44:00,53.4,50.3,29.76,SSE,158,0.0,0.0,89,0.00,CLR,,0.22,WeatherDisplay:10.37,2013-06-21 04:44:00,
2013-06-20 21:50:00,53.4,50.3,29.76,SSE,158,0.0,0.0,89,0.00,CLR,,0.22,WeatherDisplay:10.37,2013-06-21 04:50:00,
2013-06-20 21:55:00,53.4,50.3,29.77,SSE,158,0.0,0.0,89,0.00,CLR,,0.22,WeatherDisplay:10.37,2013-06-21 04:55:00,
2013-06-20 22:00:00,53.4,50.3,29.77,SSE,158,0.0,0.0,89,0.00,CLR,,0.22,WeatherDisplay:10.37,2013-06-21 05:00:00,
2013-06-20 22:05:00,53.4,50.3,29.77,SSE,158,0.0,0.0,89,0.00,CLR,,0.22,WeatherDisplay:10.37,2013-06-21 05:05:00,
2013-06-20 22:10:00,53.2,50.1,29.77,South,180,0.0,0.0,89,0.00,CLR,,0.22,WeatherDisplay:10.37,2013-06-21 05:10:00,
2013-06-20 22:15:00,53.4,50.3,29.77,SSE,158,0.0,0.0,89,0.00,CLR,,0.22,WeatherDisplay:10.37,2013-06-21 05:15:00,
2013-06-20 22:20:00,53.2,50.1,29.77,SE,135,0.0,0.0,89,0.00,CLR,,0.22,WeatherDisplay:10.37,2013-06-21 05:20:00,
2013-06-20 22:25:00,53.4,50.3,29.78,SE,135,0.0,0.0,89,0.00,CLR,,0.22,WeatherDisplay:10.37,2013-06-21 05:25:00,
2013-06-20 22:30:00,53.2,50.1,29.77,SE,135,0.0,0.0,89,0.00,CLR,,0.22,WeatherDisplay:10.37,2013-06-21 05:30:00,
2013-06-20 22:35:00,53.2,50.1,29.77,SE,135,0.0,0.0,89,0.00,CLR,,0.22,WeatherDisplay:10.37,2013-06-21 05:35:00,
2013-06-20 22:40:00,53.2,50.1,29.77,SE,135,0.0,0.0,89,0.00,CLR,,0.22,WeatherDisplay:10.37,2013-06-21 05:40:00,
2013-06-20 22:45:00,53.2,50.1,29.77,ENE,68,0.0,0.0,89,0.00,CLR,,0.22,WeatherDisplay:10.37,2013-06-21 05:45:00,
2013-06-20 22:50:00,53.2,50.1,29.77,ENE,68,0.0,0.0,89,0.00,CLR,,0.22,WeatherDisplay:10.37,2013-06-21 05:50:00,
2013-06-20 22:55:00,53.2,50.1,29.77,ESE,112,0.0,0.0,89,0.00,CLR,,0.22,WeatherDisplay:10.37,2013-06-21 05:55:00,
2013-06-20 23:00:00,53.2,50.1,29.77,ESE,112,0.0,0.0,89,0.00,CLR,,0.22,WeatherDisplay:10.37,2013-06-21 06:00:00,
2013-06-20 23:05:00,53.2,50.1,29.77,East,90,0.0,0.0,89,0.00,CLR,,0.22,WeatherDisplay:10.37,2013-06-21 06:05:00,
2013-06-20 23:10:00,53.1,49.9,29.77,East,90,0.0,0.0,89,0.00,CLR,,0.22,WeatherDisplay:10.37,2013-06-21 06:10:00,
2013-06-20 23:15:00,52.9,49.7,29.77,East,90,0.0,0.0,89,0.00,CLR,,0.22,WeatherDisplay:10.37,2013-06-21 06:15:00,
2013-06-20 23:20:00,53.1,50.2,29.77,East,90,0.0,0.0,90,0.00,CLR,,0.22,WeatherDisplay:10.37,2013-06-21 06:20:00,
2013-06-20 23:25:00,52.9,50.0,29.77,NE,45,0.0,0.0,90,0.00,CLR,,0.22,WeatherDisplay:10.37,2013-06-21 06:25:00,
2013-06-20 23:30:00,52.9,50.0,29.77,ENE,68,0.0,0.0,90,0.00,CLR,,0.22,WeatherDisplay:10.37,2013-06-21 06:30:00,
2013-06-20 23:35:00,52.9,50.0,29.77,SE,135,0.0,0.0,90,0.00,CLR,,0.22,WeatherDisplay:10.37,2013-06-21 06:35:00,
2013-06-20 23:40:00,52.9,50.0,29.77,SE,135,0.0,0.0,90,0.00,CLR,,0.22,WeatherDisplay:10.37,2013-06-21 06:40:00,
2013-06-20 23:45:00,52.9,50.0,29.77,East,90,0.0,0.0,90,0.00,CLR,,0.22,WeatherDisplay:10.37,2013-06-21 06:45:00,
2013-06-20 23:51:00,52.7,49.8,29.77,ESE,112,0.0,0.0,90,0.00,CLR,,0.22,WeatherDisplay:10.37,2013-06-21 06:51:00,
2013-06-20 23:57:00,52.7,49.8,29.77,ESE,112,0.0,0.0,90,0.00,CLR,,0.22,WeatherDisplay:10.37,2013-06-21 06:57:00,